createdAt,value
2023-01-12T00:00:46.345Z,99.99
2023-01-12T00:01:46.352Z,99.99
2023-01-12T00:02:46.462Z,99.99
2023-01-12T00:03:46.298Z,99.99
2023-01-12T00:04:46.293Z,99.99
2023-01-12T00:05:46.276Z,99.99
2023-01-12T00:06:46.258Z,99.99
2023-01-12T00:07:46.243Z,99.99
2023-01-12T00:08:46.233Z,99.99
2023-01-12T00:09:46.223Z,99.99
2023-01-12T00:10:46.211Z,99.99
2023-01-12T00:11:46.190Z,99.99
2023-01-12T00:12:46.179Z,99.99
2023-01-12T00:13:46.208Z,99.99
2023-01-12T00:14:46.182Z,99.99
2023-01-12T00:15:46.177Z,99.99
2023-01-12T00:16:46.127Z,99.99
2023-01-12T00:17:46.116Z,99.99
2023-01-12T00:18:46.128Z,99.99
2023-01-12T00:19:46.087Z,99.99
2023-01-12T00:20:46.069Z,99.99
2023-01-12T00:21:46.073Z,99.99
2023-01-12T00:22:46.057Z,99.99
2023-01-12T00:23:46.036Z,99.99
2023-01-12T00:24:46.023Z,99.99
2023-01-12T00:25:46.002Z,99.99
2023-01-12T00:26:45.995Z,99.99
2023-01-12T00:27:45.981Z,99.99
2023-01-12T00:28:45.960Z,99.99
2023-01-12T00:29:46.080Z,99.99
2023-01-12T00:30:45.935Z,99.99
2023-01-12T00:31:45.931Z,99.99
2023-01-12T00:32:45.918Z,99.99
2023-01-12T00:33:45.896Z,99.99
2023-01-12T00:34:45.944Z,99.99
2023-01-12T00:35:45.887Z,99.99
2023-01-12T00:36:45.861Z,99.99
2023-01-12T00:37:45.858Z,99.99
2023-01-12T00:38:45.839Z,99.99
2023-01-12T00:40:00.852Z,99.99
2023-01-12T00:40:46.845Z,99.99
2023-01-12T00:41:45.787Z,99.99
2023-01-12T00:42:45.777Z,99.99
2023-01-12T00:43:45.769Z,99.99
2023-01-12T00:44:45.763Z,99.99
2023-01-12T00:45:45.758Z,99.99
2023-01-12T00:46:45.723Z,99.99
2023-01-12T00:47:45.718Z,99.99
2023-01-12T00:48:45.701Z,99.99
2023-01-12T00:49:45.683Z,99.99
2023-01-12T00:50:45.675Z,99.99
2023-01-12T00:51:45.659Z,99.99
2023-01-12T00:52:45.651Z,99.99
2023-01-12T00:53:45.631Z,99.99
2023-01-12T00:54:45.620Z,99.99
2023-01-12T00:55:45.602Z,99.99
2023-01-12T00:56:45.584Z,99.99
2023-01-12T00:57:45.598Z,99.99
2023-01-12T00:58:45.565Z,99.99
2023-01-12T00:59:45.558Z,99.99
2023-01-12T01:00:45.561Z,99.99
2023-01-12T01:01:45.671Z,99.99
2023-01-12T01:02:45.515Z,99.99
2023-01-12T01:03:45.494Z,99.99
2023-01-12T01:04:45.486Z,99.99
2023-01-12T01:05:45.468Z,99.99
2023-01-12T01:06:45.458Z,99.99
2023-01-12T01:07:45.441Z,99.99
2023-01-12T01:08:45.436Z,99.99
2023-01-12T01:09:45.427Z,99.99
2023-01-12T01:10:45.408Z,99.99
2023-01-12T01:11:45.387Z,99.99
2023-01-12T01:12:45.463Z,99.99
2023-01-12T01:13:45.363Z,99.99
2023-01-12T01:14:45.348Z,99.99
2023-01-12T01:15:45.420Z,99.99
2023-01-12T01:16:45.328Z,99.99
2023-01-12T01:17:45.356Z,99.99
2023-01-12T01:18:45.306Z,99.99
2023-01-12T01:19:45.337Z,99.99
2023-01-12T01:20:45.281Z,99.99
2023-01-12T01:21:45.254Z,99.99
2023-01-12T01:22:45.264Z,99.99
2023-01-12T01:23:45.249Z,99.99
2023-01-12T01:24:45.226Z,99.99
2023-01-12T01:25:45.214Z,99.99
2023-01-12T01:26:45.200Z,99.99
2023-01-12T01:27:45.184Z,99.99
2023-01-12T01:28:45.169Z,99.99
2023-01-12T01:29:45.164Z,99.99
2023-01-12T01:30:45.139Z,99.99
2023-01-12T01:31:45.122Z,99.99
2023-01-12T01:32:45.122Z,99.99
2023-01-12T01:33:45.132Z,99.99
2023-01-12T01:34:45.083Z,99.99
2023-01-12T01:35:45.073Z,99.99
2023-01-12T01:36:45.065Z,99.99
2023-01-12T01:37:45.053Z,99.99
2023-01-12T01:38:45.035Z,99.99
2023-01-12T01:39:45.022Z,99.99
2023-01-12T01:40:45.025Z,99.99
2023-01-12T01:41:44.997Z,99.99
2023-01-12T01:42:44.983Z,99.99
2023-01-12T01:43:44.963Z,99.99
2023-01-12T01:44:44.958Z,99.99
2023-01-12T01:45:44.942Z,99.99
2023-01-12T01:46:44.947Z,99.99
2023-01-12T01:47:44.917Z,99.99
2023-01-12T01:48:44.907Z,99.99
2023-01-12T01:49:44.922Z,99.99
2023-01-12T01:50:44.887Z,99.99
2023-01-12T01:51:44.864Z,99.99
2023-01-12T01:52:44.858Z,99.99
2023-01-12T01:53:44.839Z,99.99
2023-01-12T01:54:44.815Z,99.99
2023-01-12T01:55:44.803Z,99.99
2023-01-12T01:56:44.792Z,99.99
2023-01-12T01:57:44.783Z,99.99
2023-01-12T01:58:44.775Z,99.99
2023-01-12T01:59:44.748Z,99.99
2023-01-12T02:00:44.745Z,99.99
2023-01-12T02:01:44.782Z,99.99
2023-01-12T02:02:44.818Z,99.99
2023-01-12T02:03:44.714Z,99.99
2023-01-12T02:04:44.700Z,99.99
2023-01-12T02:05:44.725Z,99.99
2023-01-12T02:06:44.658Z,99.99
2023-01-12T02:07:44.645Z,99.99
2023-01-12T02:08:44.626Z,99.99
2023-01-12T02:09:44.623Z,99.99
2023-01-12T02:10:44.598Z,99.99
2023-01-12T02:11:44.601Z,99.99
2023-01-12T02:12:44.572Z,99.99
2023-01-12T02:13:44.564Z,99.99
2023-01-12T02:14:44.552Z,99.99
2023-01-12T02:15:44.551Z,99.99
2023-01-12T02:16:44.533Z,99.96
2023-01-12T02:17:44.523Z,99.82
2023-01-12T02:18:44.493Z,99.51
2023-01-12T02:19:44.492Z,99.30
2023-01-12T02:20:44.474Z,99.19
2023-01-12T02:21:44.490Z,99.09
2023-01-12T02:22:44.457Z,98.88
2023-01-12T02:23:44.451Z,98.78
2023-01-12T02:24:44.413Z,98.68
2023-01-12T02:25:44.407Z,98.47
2023-01-12T02:26:44.389Z,98.36
2023-01-12T02:27:44.381Z,98.26
2023-01-12T02:28:44.368Z,98.26
2023-01-12T02:29:44.355Z,98.26
2023-01-12T02:30:44.335Z,98.16
2023-01-12T02:31:44.349Z,98.00
2023-01-12T02:32:44.311Z,97.69
2023-01-12T02:33:44.309Z,97.38
2023-01-12T02:34:44.294Z,97.38
2023-01-12T02:35:44.315Z,97.49
2023-01-12T02:36:44.271Z,97.28
2023-01-12T02:37:44.370Z,97.28
2023-01-12T02:38:44.237Z,97.49
2023-01-12T02:39:44.241Z,97.28
2023-01-12T02:40:44.225Z,97.38
2023-01-12T02:41:44.209Z,97.28
2023-01-12T02:42:44.183Z,96.97
2023-01-12T02:43:44.184Z,96.86
2023-01-12T02:44:44.175Z,96.66
2023-01-12T02:45:44.158Z,96.51
2023-01-12T02:46:44.198Z,96.51
2023-01-12T02:47:44.142Z,96.76
2023-01-12T02:48:44.113Z,96.76
2023-01-12T02:49:44.110Z,96.86
2023-01-12T02:50:44.093Z,96.97
2023-01-12T02:51:44.081Z,97.07
2023-01-12T02:52:44.066Z,96.97
2023-01-12T02:53:44.081Z,96.97
2023-01-12T02:54:44.036Z,96.86
2023-01-12T02:55:44.033Z,96.66
2023-01-12T02:56:44.018Z,96.76
2023-01-12T02:57:44.017Z,96.66
2023-01-12T02:58:44.006Z,96.66
2023-01-12T02:59:43.986Z,96.86
2023-01-12T03:00:44.024Z,97.17
2023-01-12T03:01:44.083Z,97.07
2023-01-12T03:02:43.984Z,96.86
2023-01-12T03:03:43.928Z,96.76
2023-01-12T03:04:43.914Z,96.76
2023-01-12T03:05:43.908Z,96.76
2023-01-12T03:06:43.896Z,96.76
2023-01-12T03:07:43.884Z,96.86
2023-01-12T03:08:43.864Z,96.76
2023-01-12T03:09:43.942Z,96.86
2023-01-12T03:10:43.860Z,96.86
2023-01-12T03:11:43.826Z,96.97
2023-01-12T03:12:43.827Z,96.91
2023-01-12T03:13:43.810Z,96.86
2023-01-12T03:14:43.799Z,96.86
2023-01-12T03:15:43.784Z,96.76
2023-01-12T03:16:43.774Z,96.66
2023-01-12T03:17:43.757Z,96.66
2023-01-12T03:18:43.758Z,96.76
2023-01-12T03:19:43.764Z,96.66
2023-01-12T03:20:43.714Z,96.66
2023-01-12T03:21:43.714Z,96.86
2023-01-12T03:22:43.701Z,96.86
2023-01-12T03:23:43.675Z,96.97
2023-01-12T03:24:43.687Z,97.12
2023-01-12T03:25:43.673Z,97.22
2023-01-12T03:26:43.648Z,97.33
2023-01-12T03:27:43.626Z,97.33
2023-01-12T03:28:43.614Z,97.33
2023-01-12T03:29:43.604Z,97.22
2023-01-12T03:30:43.590Z,97.12
2023-01-12T03:31:43.668Z,97.22
2023-01-12T03:32:43.565Z,97.12
2023-01-12T03:33:43.553Z,97.12
2023-01-12T03:34:43.550Z,97.22
2023-01-12T03:35:43.540Z,97.22
2023-01-12T03:36:43.519Z,97.22
2023-01-12T03:37:43.511Z,97.12
2023-01-12T03:38:43.500Z,97.22
2023-01-12T03:39:43.510Z,97.22
2023-01-12T03:40:43.465Z,97.22
2023-01-12T03:41:43.489Z,97.22
2023-01-12T03:42:43.441Z,97.22
2023-01-12T03:43:43.437Z,97.33
2023-01-12T03:44:43.422Z,97.43
2023-01-12T03:45:43.412Z,97.53
2023-01-12T03:46:43.446Z,97.43
2023-01-12T03:47:43.388Z,97.47
2023-01-12T03:48:43.373Z,97.53
2023-01-12T03:49:43.353Z,97.68
2023-01-12T03:50:43.350Z,97.78
2023-01-12T03:51:43.341Z,97.78
2023-01-12T03:52:43.336Z,97.78
2023-01-12T03:53:43.306Z,97.78
2023-01-12T03:54:43.307Z,97.78
2023-01-12T03:55:43.277Z,97.78
2023-01-12T03:56:43.267Z,97.68
2023-01-12T03:57:43.320Z,97.58
2023-01-12T03:58:43.251Z,97.58
2023-01-12T03:59:43.238Z,97.68
2023-01-12T04:00:43.283Z,97.68
2023-01-12T04:01:43.380Z,97.68
2023-01-12T04:02:43.205Z,97.47
2023-01-12T04:03:43.180Z,97.47
2023-01-12T04:04:43.168Z,97.37
2023-01-12T04:05:43.164Z,97.37
2023-01-12T04:06:43.146Z,97.16
2023-01-12T04:07:43.132Z,96.70
2023-01-12T04:08:43.120Z,96.60
2023-01-12T04:09:43.122Z,96.70
2023-01-12T04:10:43.104Z,96.60
2023-01-12T04:11:43.094Z,96.29
2023-01-12T04:12:43.068Z,95.98
2023-01-12T04:13:43.253Z,95.77
2023-01-12T04:14:43.075Z,95.77
2023-01-12T04:15:43.045Z,95.77
2023-01-12T04:16:43.022Z,95.77
2023-01-12T04:17:43.015Z,95.98
2023-01-12T04:18:43.009Z,95.98
2023-01-12T04:19:42.984Z,96.19
2023-01-12T04:20:42.972Z,96.33
2023-01-12T04:21:42.956Z,96.44
2023-01-12T04:22:42.948Z,96.23
2023-01-12T04:23:42.934Z,96.12
2023-01-12T04:24:42.938Z,96.23
2023-01-12T04:25:42.923Z,96.19
2023-01-12T04:26:42.904Z,96.39
2023-01-12T04:27:42.894Z,96.44
2023-01-12T04:28:42.883Z,96.23
2023-01-12T04:29:42.907Z,96.39
2023-01-12T04:30:42.845Z,96.54
2023-01-12T04:31:42.875Z,96.23
2023-01-12T04:32:42.834Z,96.29
2023-01-12T04:33:42.819Z,96.19
2023-01-12T04:34:42.807Z,96.29
2023-01-12T04:35:42.783Z,96.50
2023-01-12T04:36:42.784Z,96.50
2023-01-12T04:37:42.755Z,96.39
2023-01-12T04:38:42.760Z,96.39
2023-01-12T04:39:42.735Z,96.19
2023-01-12T04:40:42.722Z,95.98
2023-01-12T04:41:42.718Z,95.98
2023-01-12T04:42:42.696Z,95.98
2023-01-12T04:43:42.691Z,95.87
2023-01-12T04:44:42.683Z,95.87
2023-01-12T04:45:42.744Z,95.98
2023-01-12T04:46:42.647Z,95.87
2023-01-12T04:47:42.641Z,95.87
2023-01-12T04:48:42.621Z,95.77
2023-01-12T04:49:42.620Z,95.77
2023-01-12T04:50:42.636Z,95.67
2023-01-12T04:51:42.598Z,95.56
2023-01-12T04:52:42.574Z,95.36
2023-01-12T04:53:42.582Z,95.41
2023-01-12T04:54:42.553Z,95.41
2023-01-12T04:55:42.562Z,95.41
2023-01-12T04:56:42.531Z,95.51
2023-01-12T04:57:42.517Z,95.15
2023-01-12T04:58:42.497Z,95.31
2023-01-12T04:59:42.521Z,95.41
2023-01-12T05:00:42.497Z,95.10
2023-01-12T05:01:42.601Z,95.00
2023-01-12T05:02:42.468Z,94.58
2023-01-12T05:03:42.443Z,94.79
2023-01-12T05:04:42.432Z,94.79
2023-01-12T05:05:42.407Z,94.37
2023-01-12T05:06:42.424Z,94.37
2023-01-12T05:07:42.388Z,94.58
2023-01-12T05:08:42.395Z,95.00
2023-01-12T05:09:42.366Z,95.20
2023-01-12T05:10:42.373Z,95.20
2023-01-12T05:11:42.344Z,95.20
2023-01-12T05:12:42.331Z,95.10
2023-01-12T05:13:42.315Z,95.36
2023-01-12T05:14:42.306Z,95.25
2023-01-12T05:15:42.290Z,95.15
2023-01-12T05:16:42.340Z,94.63
2023-01-12T05:17:42.286Z,94.63
2023-01-12T05:18:42.258Z,94.73
2023-01-12T05:19:42.238Z,94.53
2023-01-12T05:20:42.245Z,94.63
2023-01-12T05:21:42.222Z,94.84
2023-01-12T05:22:42.216Z,94.73
2023-01-12T05:23:42.200Z,94.42
2023-01-12T05:24:42.180Z,94.73
2023-01-12T05:25:42.180Z,94.53
2023-01-12T05:26:42.150Z,94.53
2023-01-12T05:27:42.141Z,94.53
2023-01-12T05:28:42.139Z,94.42
2023-01-12T05:29:42.126Z,94.32
2023-01-12T05:30:42.158Z,94.32
2023-01-12T05:31:42.092Z,93.90
2023-01-12T05:32:42.087Z,93.90
2023-01-12T05:33:42.101Z,94.11
2023-01-12T05:34:42.052Z,94.01
2023-01-12T05:35:42.044Z,94.32
2023-01-12T05:36:42.027Z,94.53
2023-01-12T05:37:42.022Z,94.42
2023-01-12T05:38:42.000Z,94.42
2023-01-12T05:39:42.018Z,94.42
2023-01-12T05:40:41.979Z,94.63
2023-01-12T05:41:41.965Z,94.42
2023-01-12T05:42:41.969Z,94.42
2023-01-12T05:43:41.954Z,94.42
2023-01-12T05:44:41.939Z,94.63
2023-01-12T05:45:41.949Z,94.63
2023-01-12T05:46:41.914Z,94.63
2023-01-12T05:47:41.893Z,94.73
2023-01-12T05:48:41.886Z,94.73
2023-01-12T05:49:41.895Z,94.73
2023-01-12T05:50:41.852Z,94.63
2023-01-12T05:51:41.842Z,94.63
2023-01-12T05:52:41.836Z,94.63
2023-01-12T05:53:41.826Z,94.63
2023-01-12T05:54:41.803Z,94.84
2023-01-12T05:55:41.798Z,94.42
2023-01-12T05:56:41.787Z,94.42
2023-01-12T05:57:41.776Z,94.17
2023-01-12T05:58:41.752Z,94.32
2023-01-12T05:59:41.741Z,94.21
2023-01-12T06:00:41.726Z,94.32
2023-01-12T06:01:41.724Z,94.48
2023-01-12T06:02:41.705Z,94.48
2023-01-12T06:03:41.696Z,93.96
2023-01-12T06:04:41.721Z,94.17
2023-01-12T06:05:41.691Z,94.06
2023-01-12T06:06:41.651Z,94.06
2023-01-12T06:07:41.648Z,93.65
2023-01-12T06:08:41.627Z,93.65
2023-01-12T06:09:41.617Z,93.54
2023-01-12T06:10:41.616Z,93.54
2023-01-12T06:11:41.612Z,93.33
2023-01-12T06:12:41.581Z,93.44
2023-01-12T06:13:41.573Z,93.54
2023-01-12T06:14:41.551Z,93.54
2023-01-12T06:15:41.593Z,93.54
2023-01-12T06:16:41.541Z,93.23
2023-01-12T06:17:41.516Z,93.33
2023-01-12T06:18:41.513Z,93.44
2023-01-12T06:19:41.520Z,93.02
2023-01-12T06:20:41.483Z,92.93
2023-01-12T06:21:41.544Z,92.93
2023-01-12T06:22:41.465Z,92.47
2023-01-12T06:23:41.453Z,92.68
2023-01-12T06:24:41.437Z,92.68
2023-01-12T06:25:41.419Z,92.78
2023-01-12T06:26:41.410Z,92.93
2023-01-12T06:27:41.400Z,93.02
2023-01-12T06:28:41.385Z,92.93
2023-01-12T06:29:41.368Z,93.02
2023-01-12T06:30:41.360Z,93.02
2023-01-12T06:31:41.355Z,93.02
2023-01-12T06:32:41.340Z,92.72
2023-01-12T06:33:41.323Z,92.82
2023-01-12T06:34:41.319Z,93.02
2023-01-12T06:35:41.306Z,92.93
2023-01-12T06:36:41.289Z,92.51
2023-01-12T06:37:41.300Z,92.61
2023-01-12T06:38:41.259Z,92.61
2023-01-12T06:39:41.243Z,92.41
2023-01-12T06:40:41.229Z,92.47
2023-01-12T06:41:41.219Z,92.61
2023-01-12T06:42:41.209Z,92.30
2023-01-12T06:43:41.204Z,92.41
2023-01-12T06:44:41.179Z,92.61
2023-01-12T06:45:41.180Z,92.51
2023-01-12T06:46:41.288Z,92.10
2023-01-12T06:47:41.148Z,92.41
2023-01-12T06:48:41.140Z,92.51
2023-01-12T06:49:41.132Z,92.51
2023-01-12T06:50:41.118Z,92.51
2023-01-12T06:51:41.109Z,92.51
2023-01-12T06:52:41.086Z,92.20
2023-01-12T06:53:41.095Z,92.30
2023-01-12T06:54:41.057Z,92.51
2023-01-12T06:55:41.064Z,92.61
2023-01-12T06:56:41.042Z,92.61
2023-01-12T06:57:41.027Z,92.30
2023-01-12T06:58:41.019Z,92.20
2023-01-12T06:59:40.998Z,92.30
2023-01-12T07:00:40.997Z,92.41
2023-01-12T07:01:41.171Z,92.10
2023-01-12T07:02:40.977Z,91.47
2023-01-12T07:03:40.983Z,91.68
2023-01-12T07:04:41.020Z,91.78
2023-01-12T07:05:40.934Z,91.89
2023-01-12T07:06:40.918Z,91.68
2023-01-12T07:07:40.904Z,91.78
2023-01-12T07:08:40.894Z,91.99
2023-01-12T07:09:40.904Z,91.89
2023-01-12T07:10:40.876Z,91.99
2023-01-12T07:11:40.856Z,91.89
2023-01-12T07:12:40.845Z,91.78
2023-01-12T07:13:40.834Z,91.99
2023-01-12T07:14:40.819Z,91.78
2023-01-12T07:15:40.856Z,91.37
2023-01-12T07:16:40.792Z,91.02
2023-01-12T07:17:40.783Z,90.91
2023-01-12T07:18:40.780Z,90.91
2023-01-12T07:19:41.627Z,91.02
2023-01-12T07:20:40.738Z,90.70
2023-01-12T07:21:40.726Z,90.70
2023-01-12T07:22:40.713Z,91.02
2023-01-12T07:23:40.709Z,90.81
2023-01-12T07:24:40.686Z,90.70
2023-01-12T07:25:40.702Z,90.19
2023-01-12T07:26:40.674Z,90.60
2023-01-12T07:27:40.663Z,90.81
2023-01-12T07:28:40.645Z,90.50
2023-01-12T07:29:40.626Z,90.39
2023-01-12T07:30:40.621Z,90.19
2023-01-12T07:31:40.606Z,90.29
2023-01-12T07:32:40.600Z,90.19
2023-01-12T07:33:40.592Z,89.77
2023-01-12T07:34:40.568Z,89.83
2023-01-12T07:35:40.556Z,89.46
2023-01-12T07:36:40.543Z,89.31
2023-01-12T07:37:40.530Z,88.90
2023-01-12T07:38:40.520Z,88.79
2023-01-12T07:39:40.501Z,88.59
2023-01-12T07:40:40.541Z,88.28
2023-01-12T07:41:40.560Z,88.07
2023-01-12T07:42:40.472Z,87.97
2023-01-12T07:43:40.454Z,88.39
2023-01-12T07:44:40.467Z,88.39
2023-01-12T07:45:40.425Z,88.59
2023-01-12T07:46:40.521Z,88.34
2023-01-12T07:47:40.412Z,88.79
2023-01-12T07:48:40.407Z,88.79
2023-01-12T07:49:40.380Z,88.90
2023-01-12T07:50:40.357Z,88.69
2023-01-12T07:51:40.354Z,88.90
2023-01-12T07:52:40.335Z,88.69
2023-01-12T07:53:40.335Z,88.59
2023-01-12T07:54:40.311Z,88.59
2023-01-12T07:55:40.304Z,88.65
2023-01-12T07:56:40.290Z,88.76
2023-01-12T07:57:40.309Z,88.86
2023-01-12T07:58:40.262Z,88.86
2023-01-12T07:59:40.266Z,88.96
2023-01-12T08:00:40.248Z,88.90
2023-01-12T08:01:40.424Z,88.55
2023-01-12T08:02:40.224Z,88.24
2023-01-12T08:03:40.214Z,88.34
2023-01-12T08:04:40.202Z,88.24
2023-01-12T08:05:40.323Z,88.03
2023-01-12T08:06:40.182Z,88.24
2023-01-12T08:07:40.157Z,88.45
2023-01-12T08:08:40.148Z,88.03
2023-01-12T08:09:40.127Z,87.47
2023-01-12T08:10:40.121Z,87.06
2023-01-12T08:11:40.098Z,87.16
2023-01-12T08:12:40.098Z,87.37
2023-01-12T08:13:40.107Z,87.68
2023-01-12T08:14:40.072Z,87.78
2023-01-12T08:15:40.071Z,87.68
2023-01-12T08:16:40.049Z,87.88
2023-01-12T08:17:40.029Z,87.78
2023-01-12T08:18:40.021Z,87.68
2023-01-12T08:19:40.006Z,87.88
2023-01-12T08:20:39.996Z,87.47
2023-01-12T08:21:39.987Z,87.27
2023-01-12T08:22:39.997Z,87.37
2023-01-12T08:23:41.760Z,87.27
2023-01-12T08:24:39.944Z,87.68
2023-01-12T08:25:39.944Z,88.09
2023-01-12T08:26:39.937Z,87.88
2023-01-12T08:27:39.916Z,88.09
2023-01-12T08:28:39.900Z,87.47
2023-01-12T08:29:40.060Z,87.47
2023-01-12T08:30:39.860Z,87.57
2023-01-12T08:31:39.868Z,87.27
2023-01-12T08:32:39.862Z,87.37
2023-01-12T08:33:39.836Z,87.47
2023-01-12T08:34:39.820Z,87.37
2023-01-12T08:35:39.802Z,87.37
2023-01-12T08:36:40.071Z,87.47
2023-01-12T08:37:39.783Z,87.88
2023-01-12T08:38:39.763Z,87.57
2023-01-12T08:39:39.760Z,87.37
2023-01-12T08:40:39.741Z,87.68
2023-01-12T08:41:39.721Z,87.47
2023-01-12T08:42:39.706Z,87.68
2023-01-12T08:43:39.713Z,87.99
2023-01-12T08:44:39.691Z,88.09
2023-01-12T08:45:39.750Z,88.30
2023-01-12T08:46:39.708Z,88.20
2023-01-12T08:47:39.643Z,87.99
2023-01-12T08:48:39.649Z,87.78
2023-01-12T08:49:39.617Z,88.09
2023-01-12T08:50:39.612Z,88.30
2023-01-12T08:51:39.600Z,88.20
2023-01-12T08:52:39.589Z,88.30
2023-01-12T08:53:39.572Z,88.40
2023-01-12T08:54:39.561Z,88.82
2023-01-12T08:55:39.546Z,89.03
2023-01-12T08:56:39.547Z,88.82
2023-01-12T08:57:39.526Z,88.82
2023-01-12T08:58:39.512Z,88.82
2023-01-12T08:59:39.504Z,88.82
2023-01-12T09:00:39.523Z,88.09
2023-01-12T09:01:39.768Z,87.99
2023-01-12T09:02:39.506Z,87.99
2023-01-12T09:03:39.458Z,87.68
2023-01-12T09:04:39.436Z,88.26
2023-01-12T09:05:39.425Z,88.51
2023-01-12T09:06:39.403Z,87.95
2023-01-12T09:07:39.396Z,87.85
2023-01-12T09:08:39.399Z,88.06
2023-01-12T09:09:39.373Z,88.46
2023-01-12T09:10:39.363Z,88.46
2023-01-12T09:11:39.368Z,88.67
2023-01-12T09:12:39.330Z,88.46
2023-01-12T09:13:39.317Z,88.26
2023-01-12T09:14:39.313Z,87.85
2023-01-12T09:15:39.298Z,87.74
2023-01-12T09:16:39.358Z,88.16
2023-01-12T09:17:39.311Z,88.16
2023-01-12T09:18:39.259Z,87.85
2023-01-12T09:19:39.243Z,88.16
2023-01-12T09:20:39.231Z,88.06
2023-01-12T09:21:39.253Z,87.85
2023-01-12T09:22:39.215Z,88.06
2023-01-12T09:23:39.201Z,88.16
2023-01-12T09:24:39.190Z,88.46
2023-01-12T09:25:39.170Z,88.57
2023-01-12T09:26:39.161Z,89.19
2023-01-12T09:27:39.156Z,89.09
2023-01-12T09:28:39.128Z,88.67
2023-01-12T09:29:39.125Z,88.57
2023-01-12T09:30:39.117Z,88.98
2023-01-12T09:31:39.134Z,88.36
2023-01-12T09:32:39.089Z,88.16
2023-01-12T09:33:39.097Z,88.16
2023-01-12T09:34:39.137Z,88.16
2023-01-12T09:35:39.044Z,87.95
2023-01-12T09:36:39.038Z,87.95
2023-01-12T09:37:39.033Z,88.16
2023-01-12T09:38:39.007Z,88.16
2023-01-12T09:39:39.004Z,88.16
2023-01-12T09:40:38.993Z,88.16
2023-01-12T09:41:38.978Z,88.26
2023-01-12T09:42:38.971Z,87.43
2023-01-12T09:43:38.965Z,87.64
2023-01-12T09:44:38.937Z,87.95
2023-01-12T09:45:39.031Z,88.36
2023-01-12T09:46:38.930Z,88.16
2023-01-12T09:47:38.915Z,88.16
2023-01-12T09:48:38.881Z,87.70
2023-01-12T09:49:38.909Z,88.01
2023-01-12T09:50:38.864Z,87.74
2023-01-12T09:51:38.851Z,87.81
2023-01-12T09:52:38.835Z,87.81
2023-01-12T09:53:38.823Z,88.36
2023-01-12T09:54:38.809Z,88.12
2023-01-12T09:55:38.798Z,87.70
2023-01-12T09:56:38.782Z,87.49
2023-01-12T09:57:38.769Z,87.91
2023-01-12T09:58:38.757Z,88.12
2023-01-12T09:59:38.744Z,88.12
2023-01-12T10:00:38.739Z,88.01
2023-01-12T10:01:38.751Z,87.70
2023-01-12T10:02:38.892Z,87.81
2023-01-12T10:03:39.057Z,88.12
2023-01-12T10:04:38.688Z,88.32
2023-01-12T10:05:39.836Z,88.53
2023-01-12T10:06:38.670Z,88.64
2023-01-12T10:07:39.160Z,88.12
2023-01-12T10:08:38.647Z,87.29
2023-01-12T10:09:38.642Z,87.29
2023-01-12T10:10:38.610Z,87.70
2023-01-12T10:11:38.604Z,87.39
2023-01-12T10:12:38.586Z,87.49
2023-01-12T10:13:38.570Z,87.70
2023-01-12T10:14:38.561Z,87.81
2023-01-12T10:15:38.554Z,87.91
2023-01-12T10:16:38.571Z,87.08
2023-01-12T10:17:50.299Z,87.49
2023-01-12T10:18:39.546Z,87.18
2023-01-12T10:19:38.499Z,87.49
2023-01-12T10:20:38.520Z,87.60
2023-01-12T10:21:38.521Z,87.29
2023-01-12T10:22:38.480Z,87.60
2023-01-12T10:23:38.449Z,87.60
2023-01-12T10:24:38.460Z,87.49
2023-01-12T10:25:38.441Z,87.70
2023-01-12T10:26:38.407Z,87.49
2023-01-12T10:27:38.407Z,87.04
2023-01-12T10:28:38.379Z,87.49
2023-01-12T10:29:38.371Z,87.15
2023-01-12T10:30:38.345Z,87.46
2023-01-12T10:31:38.478Z,87.46
2023-01-12T10:32:41.975Z,87.56
2023-01-12T10:33:38.322Z,87.15
2023-01-12T10:34:38.292Z,87.35
2023-01-12T10:35:38.277Z,87.15
2023-01-12T10:36:38.287Z,86.94
2023-01-12T10:37:38.294Z,87.15
2023-01-12T10:38:38.327Z,87.35
2023-01-12T10:39:38.233Z,87.15
2023-01-12T10:40:38.220Z,87.46
2023-01-12T10:41:38.209Z,87.25
2023-01-12T10:42:38.193Z,87.35
2023-01-12T10:43:38.173Z,87.04
2023-01-12T10:44:38.175Z,86.83
2023-01-12T10:45:38.173Z,87.04
2023-01-12T10:46:38.134Z,87.31
2023-01-12T10:47:38.130Z,87.10
2023-01-12T10:48:38.116Z,86.69
2023-01-12T10:49:38.103Z,86.94
2023-01-12T10:50:38.087Z,87.15
2023-01-12T10:51:38.078Z,87.10
2023-01-12T10:52:38.063Z,87.21
2023-01-12T10:53:38.076Z,86.90
2023-01-12T10:54:38.049Z,87.00
2023-01-12T10:55:38.047Z,87.52
2023-01-12T10:56:38.015Z,86.90
2023-01-12T10:57:37.990Z,87.00
2023-01-12T10:58:37.981Z,87.00
2023-01-12T10:59:37.981Z,86.79
2023-01-12T11:00:37.961Z,87.10
2023-01-12T11:01:38.055Z,86.90
2023-01-12T11:02:37.962Z,87.41
2023-01-12T11:03:37.917Z,87.41
2023-01-12T11:04:37.940Z,87.41
2023-01-12T11:05:37.898Z,87.52
2023-01-12T11:06:37.879Z,86.79
2023-01-12T11:07:37.870Z,87.73
2023-01-12T11:08:37.868Z,87.52
2023-01-12T11:09:37.889Z,87.73
2023-01-12T11:10:37.821Z,88.24
2023-01-12T11:11:37.828Z,88.14
2023-01-12T11:12:37.804Z,87.52
2023-01-12T11:13:37.808Z,87.31
2023-01-12T11:14:37.768Z,87.73
2023-01-12T11:15:37.764Z,88.10
2023-01-12T11:16:37.794Z,87.79
2023-01-12T11:17:37.737Z,87.68
2023-01-12T11:18:37.730Z,88.51
2023-01-12T11:19:37.736Z,88.04
2023-01-12T11:20:37.710Z,88.20
2023-01-12T11:21:37.682Z,87.89
2023-01-12T11:22:37.691Z,88.41
2023-01-12T11:23:37.670Z,87.99
2023-01-12T11:24:37.648Z,87.58
2023-01-12T11:25:37.664Z,87.48
2023-01-12T11:26:37.619Z,87.17
2023-01-12T11:27:37.607Z,87.58
2023-01-12T11:28:37.590Z,87.27
2023-01-12T11:29:37.580Z,87.58
2023-01-12T11:30:37.571Z,87.48
2023-01-12T11:31:37.557Z,87.68
2023-01-12T11:32:37.542Z,86.76
2023-01-12T11:33:37.529Z,87.17
2023-01-12T11:34:37.515Z,87.07
2023-01-12T11:35:37.498Z,87.58
2023-01-12T11:36:37.482Z,88.10
2023-01-12T11:37:37.486Z,88.10
2023-01-12T11:38:37.461Z,87.27
2023-01-12T11:39:37.450Z,87.48
2023-01-12T11:40:37.441Z,87.07
2023-01-12T11:41:37.447Z,86.86
2023-01-12T11:42:37.410Z,87.27
2023-01-12T11:43:37.387Z,87.58
2023-01-12T11:44:37.378Z,87.48
2023-01-12T11:45:37.369Z,86.44
2023-01-12T11:46:37.366Z,86.76
2023-01-12T11:47:37.345Z,86.76
2023-01-12T11:48:37.329Z,86.65
2023-01-12T11:49:37.315Z,86.71
2023-01-12T11:50:37.306Z,87.02
2023-01-12T11:51:37.323Z,86.71
2023-01-12T11:52:37.277Z,86.92
2023-01-12T11:53:37.259Z,86.61
2023-01-12T11:54:37.251Z,86.51
2023-01-12T11:55:37.235Z,85.78
2023-01-12T11:56:37.232Z,85.99
2023-01-12T11:57:37.237Z,86.20
2023-01-12T11:58:37.199Z,86.30
2023-01-12T11:59:37.180Z,86.41
2023-01-12T12:00:37.169Z,85.78
2023-01-12T12:01:37.158Z,85.68
2023-01-12T12:02:37.340Z,86.10
2023-01-12T12:03:37.148Z,85.99
2023-01-12T12:04:37.121Z,85.89
2023-01-12T12:05:37.128Z,85.06
2023-01-12T12:06:37.094Z,85.37
2023-01-12T12:07:37.067Z,85.37
2023-01-12T12:08:37.067Z,85.17
2023-01-12T12:09:37.059Z,85.23
2023-01-12T12:10:37.036Z,85.37
2023-01-12T12:11:37.023Z,85.44
2023-01-12T12:12:37.009Z,85.23
2023-01-12T12:13:37.024Z,85.47
2023-01-12T12:14:36.989Z,85.23
2023-01-12T12:15:36.995Z,85.33
2023-01-12T12:16:36.976Z,85.23
2023-01-12T12:17:36.948Z,85.02
2023-01-12T12:18:36.934Z,84.92
2023-01-12T12:19:36.921Z,85.02
2023-01-12T12:20:36.905Z,85.85
2023-01-12T12:21:36.892Z,84.92
2023-01-12T12:22:36.870Z,85.44
2023-01-12T12:23:36.862Z,85.33
2023-01-12T12:24:36.863Z,85.64
2023-01-12T12:25:36.848Z,86.05
2023-01-12T12:26:36.819Z,85.85
2023-01-12T12:27:36.806Z,86.26
2023-01-12T12:28:36.796Z,86.68
2023-01-12T12:29:36.810Z,86.36
2023-01-12T12:30:36.773Z,85.44
2023-01-12T12:31:36.758Z,86.16
2023-01-12T12:32:36.818Z,85.85
2023-01-12T12:33:36.742Z,85.95
2023-01-12T12:34:36.725Z,85.44
2023-01-12T12:35:36.716Z,85.54
2023-01-12T12:36:36.698Z,85.54
2023-01-12T12:37:36.685Z,85.95
2023-01-12T12:38:36.678Z,86.36
2023-01-12T12:39:36.665Z,86.68
2023-01-12T12:40:36.646Z,85.85
2023-01-12T12:41:36.636Z,86.43
2023-01-12T12:42:36.609Z,86.53
2023-01-12T12:43:36.601Z,86.43
2023-01-12T12:44:36.594Z,86.32
2023-01-12T12:45:36.613Z,86.32
2023-01-12T12:46:36.604Z,86.22
2023-01-12T12:47:36.580Z,85.81
2023-01-12T12:48:36.544Z,85.71
2023-01-12T12:49:36.525Z,85.91
2023-01-12T12:50:36.504Z,85.60
2023-01-12T12:51:36.497Z,85.50
2023-01-12T12:52:36.494Z,86.02